Time;durP1;ratioP1;P1;durP2;ratioP2;P2;SDS_P1;SDS_P2;PMS_P1;PMS_P2;Temp;Humidity;BMP_temperature;BMP_pressure;BME280_temperature;BME280_humidity;BME280_pressure;Samples;Min_cycle;Max_cycle;Signal;HPM_P1;HPM_P2
2021/08/14 00:02:20;;;;;;;6.57;2.63;;;;;;;22.21;56.42;102130.41;5054892;28;20100;-60
2021/08/14 00:04:45;;;;;;;6.78;2.65;;;;;;;22.19;56.55;102126.16;5054537;28;20025;-59
2021/08/14 00:07:13;;;;;;;8.27;2.58;;;;;;;22.20;56.36;102131.34;5053877;28;20017;-60
2021/08/14 00:09:39;;;;;;;5.80;2.50;;;;;;;22.19;56.47;102123.50;5054434;28;20485;-59
2021/08/14 00:12:05;;;;;;;6.53;2.78;;;;;;;22.18;56.32;102124.50;5058118;28;20044;-59
2021/08/14 00:14:31;;;;;;;5.35;2.80;;;;;;;22.19;56.61;102124.38;5057506;28;20404;-60
2021/08/14 00:16:59;;;;;;;7.82;2.45;;;;;;;22.17;56.56;102122.78;5059214;28;20112;-60
2021/08/14 00:19:24;;;;;;;5.82;2.60;;;;;;;22.18;56.59;102121.84;5060396;28;20101;-59
2021/08/14 00:21:50;;;;;;;5.93;2.50;;;;;;;22.17;56.24;102118.31;5059563;28;20037;-59
2021/08/14 00:24:15;;;;;;;10.38;2.88;;;;;;;22.18;56.37;102127.13;5060900;28;20036;-60
2021/08/14 00:26:40;;;;;;;7.68;2.70;;;;;;;22.18;56.32;102121.84;5060583;28;20049;-59
2021/08/14 00:29:06;;;;;;;7.50;3.05;;;;;;;22.18;56.30;102124.50;5060411;28;20524;-59
2021/08/14 00:31:33;;;;;;;7.00;2.60;;;;;;;22.15;56.31;102114.09;5056867;28;20033;-59
2021/08/14 00:33:59;;;;;;;6.93;2.55;;;;;;;22.15;56.11;102120.25;5054075;28;20024;-59
2021/08/14 00:36:27;;;;;;;7.13;2.80;;;;;;;22.16;56.24;102113.13;5053605;28;20028;-60
2021/08/14 00:38:52;;;;;;;6.68;2.60;;;;;;;22.16;56.16;102115.78;5053837;28;20297;-60
2021/08/14 00:41:18;;;;;;;7.18;2.60;;;;;;;22.15;56.27;102114.09;5054024;28;20106;-60
2021/08/14 00:43:45;;;;;;;6.68;2.63;;;;;;;22.15;56.28;102116.75;5053225;28;20024;-62
2021/08/14 00:46:12;;;;;;;6.63;2.40;;;;;;;22.14;56.00;102109.75;5054466;28;20070;-60
2021/08/14 00:48:39;;;;;;;7.70;2.83;;;;;;;22.14;56.13;102115.91;5053138;28;20048;-61
2021/08/14 00:51:07;;;;;;;7.60;2.60;;;;;;;22.13;56.34;102116.88;5053591;28;20040;-60
2021/08/14 00:53:33;;;;;;;6.68;3.35;;;;;;;22.14;56.06;102121.19;5053684;28;20029;-60
2021/08/14 00:55:59;;;;;;;6.85;2.35;;;;;;;22.13;56.05;102114.22;5052489;28;20044;-60
2021/08/14 00:58:25;;;;;;;7.63;2.85;;;;;;;22.14;56.33;102110.59;5053890;28;20029;-59
2021/08/14 01:00:51;;;;;;;7.63;2.72;;;;;;;22.13;55.99;102119.53;5052139;28;20362;-60
2021/08/14 01:03:16;;;;;;;7.60;2.72;;;;;;;22.10;56.05;102103.84;5052790;28;20024;-60
2021/08/14 01:05:45;;;;;;;8.40;2.65;;;;;;;22.13;56.14;102110.72;5053730;28;20099;-60
2021/08/14 01:08:15;;;;;;;6.82;2.67;;;;;;;22.12;56.12;102112.53;5053397;28;20025;-60
2021/08/14 01:10:41;;;;;;;9.40;2.63;;;;;;;22.12;56.17;102119.66;5052654;28;20377;-60
2021/08/14 01:13:06;;;;;;;6.82;2.50;;;;;;;22.08;56.25;102111.94;5053427;28;20059;-60
2021/08/14 01:15:31;;;;;;;5.18;2.58;;;;;;;22.10;56.17;102115.31;5053545;28;20028;-60
2021/08/14 01:17:57;;;;;;;9.23;2.80;;;;;;;22.09;56.08;102113.59;5052516;28;20161;-59
2021/08/14 01:20:23;;;;;;;7.95;2.90;;;;;;;22.10;55.83;102114.47;5053547;28;20100;-59
2021/08/14 01:22:51;;;;;;;7.68;2.40;;;;;;;22.09;55.83;102104.81;5053230;28;20017;-59
2021/08/14 01:25:17;;;;;;;5.95;2.65;;;;;;;22.08;55.84;102114.59;5052664;28;20036;-60
2021/08/14 01:27:43;;;;;;;7.43;2.83;;;;;;;22.08;56.02;102106.63;5053651;28;20163;-60
2021/08/14 01:30:10;;;;;;;6.78;2.80;;;;;;;22.07;56.18;102109.41;5053164;28;20033;-60
2021/08/14 01:32:36;;;;;;;6.13;2.60;;;;;;;22.08;55.88;102106.63;5052411;28;20491;-59
2021/08/14 01:35:02;;;;;;;5.97;2.50;;;;;;;22.07;56.01;102099.59;5052862;28;20036;-59
2021/08/14 01:37:30;;;;;;;5.95;2.75;;;;;;;22.07;55.77;102098.78;5053130;28;20107;-59
2021/08/14 01:39:56;;;;;;;6.55;2.70;;;;;;;22.07;55.65;102093.47;5052145;28;20025;-59
2021/08/14 01:42:21;;;;;;;6.43;2.30;;;;;;;22.06;55.67;102099.72;5053468;28;20021;-58
2021/08/14 01:44:46;;;;;;;6.43;2.50;;;;;;;22.04;55.94;102089.22;5052759;28;20076;-60
2021/08/14 01:47:12;;;;;;;7.05;2.50;;;;;;;22.05;55.81;102100.72;5052174;28;20316;-59
2021/08/14 01:49:37;;;;;;;5.90;2.50;;;;;;;22.05;55.59;102096.25;5053052;28;20452;-60
2021/08/14 01:52:14;;;;;;;5.82;2.55;;;;;;;22.04;55.81;102096.38;5051972;28;20304;-60
2021/08/14 01:54:41;;;;;;;5.40;2.40;;;;;;;22.04;55.65;102099.00;5053175;28;20031;-60
2021/08/14 01:57:07;;;;;;;6.70;2.67;;;;;;;22.04;55.84;102093.69;5052339;28;20032;-59
2021/08/14 01:59:33;;;;;;;5.65;2.33;;;;;;;22.04;55.75;102093.69;5052299;28;20052;-59
2021/08/14 02:01:58;;;;;;;6.35;2.72;;;;;;;22.04;55.88;102089.22;5052383;28;20396;-59
2021/08/14 02:04:24;;;;;;;5.78;2.40;;;;;;;22.03;55.74;102086.69;5052711;28;20429;-59
2021/08/14 02:06:49;;;;;;;6.00;2.72;;;;;;;22.02;55.61;102083.22;5051540;28;20104;-59
2021/08/14 02:09:14;;;;;;;8.03;3.07;;;;;;;22.02;55.62;102083.22;5052699;28;20485;-59
2021/08/14 02:11:40;;;;;;;5.28;2.55;;;;;;;22.03;55.66;102084.03;5052097;28;20282;-59
2021/08/14 02:14:06;;;;;;;5.72;2.53;;;;;;;22.01;55.71;102086.81;5051398;28;20036;-60
2021/08/14 02:16:33;;;;;;;6.35;3.42;;;;;;;22.01;55.80;102083.31;5052357;28;20023;-60
2021/08/14 02:18:59;;;;;;;6.18;2.58;;;;;;;22.01;55.56;102072.72;5052046;28;20021;-59
2021/08/14 02:21:24;;;;;;;6.40;2.78;;;;;;;22.01;55.66;102067.41;5051427;28;20031;-59
2021/08/14 02:23:50;;;;;;;7.20;2.65;;;;;;;21.99;55.43;102070.19;5051914;28;20487;-60
2021/08/14 02:26:15;;;;;;;6.63;2.78;;;;;;;22.00;55.69;102068.34;5052188;28;20055;-60
2021/08/14 02:28:40;;;;;;;6.55;2.53;;;;;;;21.99;55.51;102064.88;5051512;28;20021;-60
2021/08/14 02:31:09;;;;;;;5.90;2.40;;;;;;;22.01;55.83;102070.06;5051540;28;20112;-60
2021/08/14 02:33:37;;;;;;;4.55;2.40;;;;;;;21.99;55.42;102066.69;5052183;28;20539;-60
2021/08/14 02:36:07;;;;;;;6.95;2.90;;;;;;;21.98;55.48;102070.28;5050929;28;20107;-61
2021/08/14 02:38:34;;;;;;;8.27;3.33;;;;;;;21.98;55.61;102071.13;5052231;28;20023;-60
2021/08/14 02:41:01;;;;;;;7.30;2.90;;;;;;;21.98;55.31;102070.28;5051974;28;20025;-60
2021/08/14 02:43:26;;;;;;;5.30;2.50;;;;;;;21.98;55.37;102065.81;5050639;28;20039;-60
2021/08/14 02:45:51;;;;;;;6.13;2.60;;;;;;;21.97;55.24;102056.19;5051680;28;20025;-59
2021/08/14 02:48:17;;;;;;;7.30;2.72;;;;;;;21.97;55.35;102058.84;5051094;28;20477;-59
2021/08/14 02:50:44;;;;;;;5.47;2.90;;;;;;;21.96;55.30;102056.31;5051767;28;20032;-59
2021/08/14 02:53:09;;;;;;;5.15;2.45;;;;;;;21.97;55.56;102056.19;5052015;28;20048;-60
2021/08/14 02:55:35;;;;;;;5.95;2.55;;;;;;;21.96;55.50;102056.31;5051253;28;20473;-60
2021/08/14 02:58:00;;;;;;;6.35;2.78;;;;;;;21.95;55.47;102055.44;5051621;28;20017;-60
2021/08/14 03:00:25;;;;;;;5.65;2.05;;;;;;;21.96;55.27;102058.97;5051698;28;20499;-60
2021/08/14 03:02:50;;;;;;;5.53;2.67;;;;;;;21.93;55.48;102058.22;5050899;28;20100;-59
2021/08/14 03:05:16;;;;;;;7.18;2.60;;;;;;;21.92;55.26;102053.91;5051600;28;20262;-60
2021/08/14 03:07:41;;;;;;;5.53;2.67;;;;;;;21.94;55.03;102056.44;5051916;28;20025;-60
2021/08/14 03:10:07;;;;;;;6.27;2.63;;;;;;;21.93;55.15;102058.22;5050758;28;20028;-60
2021/08/14 03:12:32;;;;;;;5.63;2.50;;;;;;;21.93;55.26;102060.03;5051737;28;20348;-60
2021/08/14 03:14:57;;;;;;;6.45;2.90;;;;;;;21.93;55.06;102060.03;5051542;28;20021;-61
2021/08/14 03:17:23;;;;;;;6.35;2.97;;;;;;;21.92;55.14;102058.34;5050929;28;20412;-59
2021/08/14 03:19:48;;;;;;;5.88;2.58;;;;;;;21.91;55.14;102054.84;5051324;28;20048;-59
2021/08/14 03:22:13;;;;;;;5.60;2.40;;;;;;;21.89;55.38;102048.81;5051646;28;20025;-60
2021/08/14 03:24:39;;;;;;;5.25;2.78;;;;;;;21.91;55.13;102049.53;5054822;28;20720;-60
2021/08/14 03:27:06;;;;;;;5.95;2.70;;;;;;;21.91;55.06;102048.72;5055516;28;20036;-60
2021/08/14 03:29:32;;;;;;;6.50;2.78;;;;;;;21.90;55.04;102047.88;5055471;28;20070;-60
2021/08/14 03:31:57;;;;;;;5.10;2.30;;;;;;;21.90;55.02;102047.88;5054392;28;20033;-60
2021/08/14 03:34:22;;;;;;;5.22;2.45;;;;;;;21.91;55.16;102046.06;5055283;28;20437;-58
2021/08/14 03:36:48;;;;;;;7.00;2.80;;;;;;;21.90;55.06;102041.69;5055201;28;20028;-59
2021/08/14 03:39:13;;;;;;;7.50;3.00;;;;;;;21.88;55.00;102040.97;5054680;28;20114;-59
2021/08/14 03:41:38;;;;;;;5.90;2.83;;;;;;;21.90;54.94;102049.66;5055380;28;20119;-59
2021/08/14 03:44:05;;;;;;;6.82;2.80;;;;;;;21.87;54.99;102045.47;5055054;28;20029;-59
2021/08/14 03:46:31;;;;;;;5.70;2.60;;;;;;;21.89;54.84;102040.03;5054454;28;20041;-59
2021/08/14 03:48:56;;;;;;;6.82;2.90;;;;;;;21.88;54.93;102046.28;5054542;28;20051;-60
2021/08/14 03:51:21;;;;;;;5.95;2.55;;;;;;;21.87;54.88;102042.81;5055231;28;20033;-60
2021/08/14 03:53:47;;;;;;;6.87;2.83;;;;;;;21.86;55.00;102045.56;5054204;28;20025;-59
2021/08/14 03:56:15;;;;;;;5.35;2.90;;;;;;;21.87;54.84;102041.94;5055170;28;20821;-62
2021/08/14 03:58:40;;;;;;;5.60;3.08;;;;;;;21.87;54.81;102041.94;5054447;28;20037;-59
2021/08/14 04:01:06;;;;;;;5.88;2.95;;;;;;;21.87;54.95;102049.91;5054851;28;20067;-60
2021/08/14 04:03:31;;;;;;;5.30;2.60;;;;;;;21.87;54.61;102052.56;5054719;28;20480;-60
2021/08/14 04:05:57;;;;;;;5.85;2.53;;;;;;;21.86;54.66;102048.22;5053985;28;20112;-60
2021/08/14 04:08:23;;;;;;;5.85;2.80;;;;;;;21.86;54.91;102049.06;5054764;28;20025;-60
2021/08/14 04:10:51;;;;;;;4.55;2.13;;;;;;;21.86;54.66;102048.22;5054532;28;20036;-59
2021/08/14 04:13:17;;;;;;;6.40;2.60;;;;;;;21.86;54.72;102064.16;5054124;28;20393;-60
2021/08/14 04:15:42;;;;;;;5.32;2.45;;;;;;;21.84;54.73;102056.31;5054802;28;20017;-60
2021/08/14 04:18:08;;;;;;;5.78;2.90;;;;;;;21.82;54.48;102055.56;5054284;28;20017;-60
2021/08/14 04:20:34;;;;;;;6.32;2.83;;;;;;;21.84;54.66;102058.09;5054162;28;20036;-60
2021/08/14 04:22:59;;;;;;;5.15;2.38;;;;;;;21.84;54.66;102058.97;5054300;28;20025;-60
2021/08/14 04:25:24;;;;;;;4.95;2.45;;;;;;;21.84;54.48;102050.13;5054591;28;20106;-60
2021/08/14 04:27:52;;;;;;;5.82;2.80;;;;;;;21.84;54.51;102058.09;5053380;28;20067;-60
2021/08/14 04:30:26;;;;;;;6.07;2.58;;;;;;;21.83;54.69;102051.97;5054347;28;20079;-60
2021/08/14 04:32:51;;;;;;;6.05;2.67;;;;;;;21.82;54.41;102050.25;5053989;28;20021;-60
2021/08/14 04:35:20;;;;;;;5.97;2.30;;;;;;;21.83;54.48;102048.47;5053506;28;20032;-60
2021/08/14 04:37:45;;;;;;;6.18;2.78;;;;;;;21.83;54.26;102045.81;5053886;28;20031;-60
2021/08/14 04:40:18;;;;;;;6.20;2.60;;;;;;;21.81;54.46;102050.38;5054260;28;20020;-59
2021/08/14 04:42:43;;;;;;;6.18;2.30;;;;;;;21.81;54.57;102042.41;5053323;28;20024;-59
2021/08/14 04:45:13;;;;;;;5.07;2.35;;;;;;;21.81;54.34;102053.91;5054130;28;20377;-59
2021/08/14 04:47:38;;;;;;;5.13;2.50;;;;;;;21.80;54.36;102044.22;5053946;28;20080;-59
2021/08/14 04:50:06;;;;;;;4.45;2.25;;;;;;;21.80;54.39;102044.22;5052832;28;20056;-59
2021/08/14 04:52:31;;;;;;;5.25;2.28;;;;;;;21.81;54.27;102045.06;5053839;28;20075;-59
2021/08/14 04:54:57;;;;;;;5.80;2.40;;;;;;;21.80;54.08;102038.94;5052885;28;20029;-59
2021/08/14 04:57:22;;;;;;;5.28;2.28;;;;;;;21.80;54.15;102046.88;5053731;28;20330;-59
2021/08/14 04:59:48;;;;;;;4.70;2.25;;;;;;;21.80;54.26;102049.53;5053436;28;20461;-59
2021/08/14 05:02:16;;;;;;;5.33;2.53;;;;;;;21.80;54.19;102046.06;5053042;28;20059;-59
2021/08/14 05:04:42;;;;;;;6.07;2.50;;;;;;;21.80;54.38;102048.72;5053740;28;20282;-59
2021/08/14 05:07:10;;;;;;;7.28;2.88;;;;;;;21.78;54.17;102042.66;5053639;28;20027;-60
2021/08/14 05:09:36;;;;;;;6.15;2.70;;;;;;;21.77;54.48;102041.81;5053000;28;20029;-60
2021/08/14 05:12:02;;;;;;;6.80;2.55;;;;;;;21.80;54.03;102054.00;5052884;28;20115;-60
2021/08/14 05:14:27;;;;;;;5.65;2.40;;;;;;;21.79;54.31;102055.81;5052980;28;20121;-59
2021/08/14 05:16:53;;;;;;;6.60;2.53;;;;;;;21.79;54.25;102049.66;5052632;28;20442;-59
2021/08/14 05:19:18;;;;;;;5.35;2.38;;;;;;;21.78;54.15;102042.66;5053477;28;20320;-59
2021/08/14 05:21:43;;;;;;;5.05;2.20;;;;;;;21.79;54.10;102061.09;5053184;28;20477;-60
2021/08/14 05:24:09;;;;;;;5.43;2.45;;;;;;;21.79;54.24;102057.63;5052658;28;20028;-59
2021/08/14 05:26:34;;;;;;;5.78;2.20;;;;;;;21.80;54.27;102051.38;5053289;28;20149;-60
2021/08/14 05:29:02;;;;;;;4.90;2.30;;;;;;;21.80;53.90;102046.06;5052774;28;20032;-60
2021/08/14 05:31:27;;;;;;;6.85;3.75;;;;;;;21.79;54.14;102047.84;5052828;28;20341;-60
2021/08/14 05:33:52;;;;;;;5.10;2.22;;;;;;;21.80;54.10;102048.72;5052937;28;20050;-60
2021/08/14 05:36:17;;;;;;;6.68;2.60;;;;;;;21.79;54.07;102044.34;5053282;28;20032;-60
2021/08/14 05:38:45;;;;;;;7.75;2.35;;;;;;;21.79;54.11;102045.19;5052328;28;20170;-60
2021/08/14 05:41:11;;;;;;;6.05;2.13;;;;;;;21.80;54.33;102048.72;5053049;28;20029;-61
2021/08/14 05:43:36;;;;;;;6.50;2.60;;;;;;;21.79;54.35;102047.84;5053000;28;20017;-59
2021/08/14 05:46:01;;;;;;;4.57;2.40;;;;;;;21.78;54.36;102042.66;5051605;28;20274;-60
2021/08/14 05:48:26;;;;;;;7.15;2.50;;;;;;;21.78;54.49;102043.53;5052794;28;20381;-59
2021/08/14 05:50:52;;;;;;;8.25;2.72;;;;;;;21.78;54.43;102040.88;5052401;28;20031;-59
2021/08/14 05:53:18;;;;;;;7.00;2.35;;;;;;;21.79;54.40;102041.69;5052321;28;20047;-60
2021/08/14 05:55:44;;;;;;;5.53;2.30;;;;;;;21.78;54.29;102029.38;5052868;28;20016;-59
2021/08/14 05:58:09;;;;;;;7.47;2.50;;;;;;;21.77;54.51;102041.81;5052215;28;20102;-59
2021/08/14 06:00:35;;;;;;;6.25;2.88;;;;;;;21.78;54.57;102045.31;5052922;28;20047;-58
2021/08/14 06:03:00;;;;;;;5.35;2.47;;;;;;;21.77;54.32;102040.97;5052591;28;20066;-58
2021/08/14 06:05:25;;;;;;;5.30;2.50;;;;;;;21.77;54.40;102046.28;5052081;28;20484;-59
2021/08/14 06:07:53;;;;;;;5.25;2.60;;;;;;;21.76;54.35;102044.59;5052336;28;20053;-59
2021/08/14 06:10:20;;;;;;;5.53;2.58;;;;;;;21.77;54.44;102040.97;5052529;28;20029;-59
2021/08/14 06:12:45;;;;;;;5.72;2.67;;;;;;;21.77;54.35;102043.63;5051274;28;20174;-58
2021/08/14 06:15:12;;;;;;;5.95;2.40;;;;;;;21.77;54.39;102048.94;5052590;28;20053;-59
2021/08/14 06:17:37;;;;;;;6.25;2.67;;;;;;;21.77;54.38;102052.44;5052617;28;20136;-60
2021/08/14 06:20:04;;;;;;;5.40;2.38;;;;;;;21.77;54.57;102049.78;5051258;28;20056;-60
2021/08/14 06:22:29;;;;;;;5.65;2.30;;;;;;;21.76;54.50;102048.09;5052577;28;20112;-60
2021/08/14 06:24:55;;;;;;;5.97;2.85;;;;;;;21.78;54.48;102050.63;5052216;28;20059;-59
2021/08/14 06:27:20;;;;;;;6.63;3.05;;;;;;;21.78;54.56;102058.56;5051482;28;20048;-59
2021/08/14 06:29:46;;;;;;;4.53;2.10;;;;;;;21.79;54.63;102044.34;5051943;28;20082;-60
2021/08/14 06:32:11;;;;;;;6.20;2.30;;;;;;;21.77;54.48;102049.78;5052423;28;20021;-60
2021/08/14 06:34:37;;;;;;;5.68;2.22;;;;;;;21.82;54.63;102058.22;5054354;28;20033;-59
2021/08/14 06:37:03;;;;;;;6.65;2.58;;;;;;;21.82;54.69;102052.91;5051881;28;20465;-60
2021/08/14 06:39:28;;;;;;;6.57;2.75;;;;;;;21.84;54.97;102055.44;5052112;28;20063;-58
2021/08/14 06:41:54;;;;;;;6.90;2.70;;;;;;;21.84;55.07;102061.63;5050952;28;20036;-60
2021/08/14 06:44:19;;;;;;;7.25;2.50;;;;;;;21.84;55.25;102058.97;5052300;28;20446;-59
2021/08/14 06:46:44;;;;;;;6.90;2.63;;;;;;;21.87;55.28;102060.50;5051691;28;20067;-59
2021/08/14 06:49:12;;;;;;;7.60;2.47;;;;;;;21.88;55.57;102057.75;5051432;28;20025;-59
2021/08/14 06:51:38;;;;;;;5.57;2.38;;;;;;;21.90;55.84;102058.50;5052035;28;20332;-59
2021/08/14 06:54:04;;;;;;;7.85;2.42;;;;;;;21.91;55.75;102052.19;5051650;28;20377;-60
2021/08/14 06:56:36;;;;;;;6.55;2.47;;;;;;;21.95;55.87;102057.25;5051581;28;20029;-60
2021/08/14 06:59:01;;;;;;;5.90;2.40;;;;;;;21.97;55.96;102056.19;5054601;28;20021;-59
2021/08/14 07:01:26;;;;;;;5.72;2.67;;;;;;;21.99;55.74;102058.72;5055338;28;20036;-59
2021/08/14 07:03:52;;;;;;;7.63;2.60;;;;;;;22.00;55.90;102052.44;5055451;28;20040;-60
2021/08/14 07:06:22;;;;;;;7.53;2.88;;;;;;;22.04;55.94;102051.22;5055702;28;20021;-59
2021/08/14 07:08:48;;;;;;;6.95;2.50;;;;;;;22.05;56.12;102044.97;5054775;28;20104;-60
2021/08/14 07:11:14;;;;;;;5.68;2.38;;;;;;;22.06;56.09;102043.97;5055951;28;20051;-59
2021/08/14 07:13:39;;;;;;;7.18;2.42;;;;;;;22.07;56.15;102043.03;5055799;28;20028;-59
2021/08/14 07:16:05;;;;;;;5.97;2.42;;;;;;;22.09;56.09;102044.56;5054800;28;20025;-60
2021/08/14 07:18:30;;;;;;;9.43;2.83;;;;;;;22.12;56.29;102047.97;5055952;28;20059;-60
2021/08/14 07:20:56;;;;;;;7.15;2.72;;;;;;;22.12;56.23;102046.16;5054908;28;20033;-59
2021/08/14 07:23:21;;;;;;;7.37;2.70;;;;;;;22.13;56.49;102045.19;5054813;28;20463;-60
2021/08/14 07:25:46;;;;;;;6.83;2.60;;;;;;;22.14;56.24;102052.19;5055207;28;20296;-58
2021/08/14 07:28:11;;;;;;;9.63;2.67;;;;;;;22.16;56.79;102054.72;5055625;28;20025;-60
2021/08/14 07:30:37;;;;;;;6.45;2.95;;;;;;;22.17;56.57;102041.31;5054724;28;20287;-59
2021/08/14 07:33:02;;;;;;;8.35;3.00;;;;;;;22.18;56.56;102048.31;5055061;28;20024;-60
2021/08/14 07:35:27;;;;;;;5.97;2.53;;;;;;;22.18;56.71;102042.19;5055568;28;20020;-60
2021/08/14 07:37:53;;;;;;;7.60;2.47;;;;;;;22.20;56.55;102046.38;5054326;28;20056;-59
2021/08/14 07:40:20;;;;;;;7.37;2.80;;;;;;;22.21;56.75;102047.25;5055309;28;20098;-59
2021/08/14 07:42:46;;;;;;;7.55;2.60;;;;;;;22.21;56.35;102047.25;5054885;28;20742;-60
2021/08/14 07:45:15;;;;;;;8.90;3.33;;;;;;;22.17;55.88;102051.94;5054487;28;20025;-59
2021/08/14 07:47:41;;;;;;;6.57;3.05;;;;;;;22.14;55.90;102052.19;5055094;28;20052;-61
2021/08/14 07:50:07;;;;;;;10.90;3.55;;;;;;;22.12;55.75;102045.31;5054705;28;20481;-59
2021/08/14 07:52:32;;;;;;;8.32;3.70;;;;;;;22.12;55.19;102048.81;5055584;28;20391;-59
2021/08/14 07:54:58;;;;;;;9.43;3.63;;;;;;;22.11;55.35;102047.09;5055502;28;20028;-55
2021/08/14 07:57:23;;;;;;;8.93;3.63;;;;;;;22.10;55.60;102045.44;5056983;28;20479;-59
2021/08/14 07:59:48;;;;;;;9.23;3.22;;;;;;;22.13;55.47;102053.16;5056223;28;20055;-59
2021/08/14 08:02:14;;;;;;;10.65;4.13;;;;;;;22.13;55.51;102052.31;5059377;28;20039;-59
2021/08/14 08:04:39;;;;;;;12.80;4.28;;;;;;;22.13;54.89;102052.31;5058343;28;20461;-59
2021/08/14 08:07:04;;;;;;;8.63;3.90;;;;;;;22.11;55.12;102049.75;5054564;28;20033;-59
2021/08/14 08:09:29;;;;;;;9.77;4.00;;;;;;;22.09;54.97;102047.22;5054181;28;20611;-58
2021/08/14 08:11:55;;;;;;;8.60;3.60;;;;;;;22.09;55.20;102047.22;5055714;28;20385;-61
2021/08/14 08:14:20;;;;;;;12.63;4.90;;;;;;;22.08;55.33;102048.22;5054614;28;20277;-60
2021/08/14 08:16:46;;;;;;;9.90;4.50;;;;;;;22.04;55.46;102036.16;5054521;28;20044;-61
2021/08/14 08:19:11;;;;;;;10.77;4.68;;;;;;;22.08;55.02;102042.91;5053926;28;20021;-60
2021/08/14 08:21:39;;;;;;;12.63;5.20;;;;;;;22.06;55.25;102036.88;5054677;28;20028;-59
2021/08/14 08:24:05;;;;;;;11.65;5.03;;;;;;;22.07;55.26;102037.72;5054041;28;20039;-60
2021/08/14 08:26:36;;;;;;;11.55;5.57;;;;;;;22.06;55.19;102036.88;5053822;28;20111;-60
2021/08/14 08:29:01;;;;;;;10.65;4.88;;;;;;;22.05;55.25;102037.84;5053918;28;20469;-60
2021/08/14 08:31:26;;;;;;;12.93;4.63;;;;;;;22.03;55.58;102030.94;5054290;28;20078;-60
2021/08/14 08:33:54;;;;;;;11.95;4.78;;;;;;;22.04;55.52;102036.16;5053152;28;20497;-61
2021/08/14 08:36:21;;;;;;;12.50;5.45;;;;;;;22.03;55.84;102034.47;5054174;28;20037;-59
2021/08/14 08:38:46;;;;;;;10.02;5.13;;;;;;;22.03;55.55;102039.78;5053911;28;20422;-60
2021/08/14 08:41:12;;;;;;;13.68;4.40;;;;;;;22.05;55.60;102040.50;5053549;28;20021;-60
2021/08/14 08:43:40;;;;;;;11.60;5.32;;;;;;;22.05;55.91;102037.84;5054366;28;20037;-61
2021/08/14 08:46:08;;;;;;;10.45;4.93;;;;;;;22.06;55.87;102042.19;5053880;28;20029;-60
2021/08/14 08:48:35;;;;;;;12.05;6.03;;;;;;;22.05;56.08;102037.84;5053240;28;20048;-60
2021/08/14 08:51:04;;;;;;;14.02;5.28;;;;;;;22.06;55.72;102036.88;5053667;28;20028;-60
2021/08/14 08:53:29;;;;;;;13.82;4.93;;;;;;;22.04;55.86;102038.78;5053958;28;20421;-59
2021/08/14 08:55:55;;;;;;;11.38;4.93;;;;;;;22.06;56.01;102039.53;5053135;28;20159;-61
2021/08/14 08:58:21;;;;;;;11.77;5.10;;;;;;;22.06;56.11;102031.56;5054025;28;20079;-61
2021/08/14 09:00:46;;;;;;;9.45;4.88;;;;;;;22.10;56.14;102026.84;5053531;28;20056;-60
2021/08/14 09:03:15;;;;;;;8.90;4.70;;;;;;;22.11;56.01;102028.53;5053094;28;20059;-60
2021/08/14 09:05:48;;;;;;;10.38;4.50;;;;;;;22.13;55.93;102028.41;5053679;28;20025;-59
2021/08/14 09:08:14;;;;;;;10.80;4.72;;;;;;;22.12;56.19;102030.22;5053136;28;20550;-59
2021/08/14 09:10:40;;;;;;;11.48;4.85;;;;;;;22.14;56.12;102025.63;5053746;28;20041;-60
2021/08/14 09:13:27;;;;;;;11.10;4.90;;;;;;;22.17;56.33;102027.22;5053537;28;20117;-60
2021/08/14 09:15:52;;;;;;;9.60;4.63;;;;;;;22.18;56.11;102028.91;5052630;28;20025;-61
2021/08/14 09:18:18;;;;;;;10.13;4.70;;;;;;;22.20;56.13;102032.28;5053495;28;20025;-61
2021/08/14 09:20:49;;;;;;;10.70;5.07;;;;;;;22.21;56.34;102029.50;5052672;28;20025;-61
2021/08/14 09:23:16;;;;;;;9.15;4.35;;;;;;;22.23;56.18;102038.19;5052676;28;20275;-60
2021/08/14 09:25:46;;;;;;;9.85;4.82;;;;;;;22.23;56.47;102034.69;5053408;28;20087;-61
2021/08/14 09:28:13;;;;;;;10.02;4.93;;;;;;;22.24;56.30;102033.72;5053451;28;20013;-59
2021/08/14 09:30:54;;;;;;;11.35;5.20;;;;;;;22.23;56.28;102024.06;5052290;28;20028;-60
2021/08/14 09:33:24;;;;;;;10.52;5.80;;;;;;;22.26;56.67;102027.31;5053387;28;20024;-59
2021/08/14 09:36:03;;;;;;;12.07;6.13;;;;;;;22.27;56.44;102029.00;5052898;28;20021;-59
2021/08/14 09:38:49;;;;;;;9.73;5.97;;;;;;;22.26;56.64;102029.13;5052881;28;20047;-60
2021/08/14 09:41:16;;;;;;;11.63;6.40;;;;;;;22.25;56.50;102028.25;5053281;28;20029;-59
2021/08/14 09:43:43;;;;;;;13.60;7.30;;;;;;;22.24;56.50;102026.59;5052490;28;20029;-59
2021/08/14 09:46:09;;;;;;;11.70;6.95;;;;;;;22.24;56.33;102021.28;5052909;28;20028;-60
2021/08/14 09:48:34;;;;;;;13.57;8.07;;;;;;;22.26;56.37;102029.13;5053079;28;20048;-58
2021/08/14 09:51:00;;;;;;;14.25;8.20;;;;;;;22.26;56.67;102029.97;5051614;28;20405;-58
2021/08/14 09:53:29;;;;;;;15.13;8.43;;;;;;;22.28;56.51;102024.53;5052377;28;20024;-59
2021/08/14 09:56:11;;;;;;;12.85;8.38;;;;;;;22.31;56.62;102031.44;5052510;28;20017;-61
2021/08/14 09:58:38;;;;;;;13.20;7.90;;;;;;;22.32;56.40;102022.50;5051767;28;20023;-59
2021/08/14 10:01:05;;;;;;;14.65;8.32;;;;;;;22.31;56.65;102024.31;5052762;28;20116;-60
2021/08/14 10:03:32;;;;;;;17.13;9.00;;;;;;;22.31;56.28;102021.66;5052547;28;20111;-59
2021/08/14 10:06:04;;;;;;;14.38;8.98;;;;;;;22.32;56.59;102022.50;5051681;28;20116;-59
2021/08/14 10:08:30;;;;;;;14.10;8.80;;;;;;;22.32;56.67;102025.16;5051417;28;20017;-59
2021/08/14 10:10:56;;;;;;;13.50;9.10;;;;;;;22.31;56.39;102024.31;5052426;28;20059;-59
2021/08/14 10:13:22;;;;;;;14.77;9.38;;;;;;;22.31;56.83;102021.66;5051843;28;20112;-60
2021/08/14 10:15:49;;;;;;;14.10;9.10;;;;;;;22.30;56.68;102025.28;5052216;28;20071;-58
2021/08/14 10:18:17;;;;;;;15.43;9.73;;;;;;;22.32;56.48;102030.47;5052211;28;20108;-60
2021/08/14 10:20:42;;;;;;;18.35;10.32;;;;;;;22.32;56.73;102031.31;5052359;28;20029;-60
2021/08/14 10:23:10;;;;;;;13.02;9.30;;;;;;;22.31;56.41;102032.28;5052477;28;20075;-60
2021/08/14 10:25:42;;;;;;;19.33;11.18;;;;;;;22.31;56.74;102037.59;5051525;28;20602;-59
2021/08/14 10:28:09;;;;;;;17.50;11.30;;;;;;;22.30;56.74;102038.56;5052229;28;20032;-59
2021/08/14 10:30:35;;;;;;;18.15;11.88;;;;;;;22.29;56.70;102031.53;5052173;28;20389;-59
2021/08/14 10:33:00;;;;;;;17.92;12.48;;;;;;;22.29;56.82;102039.50;5050861;28;20036;-59
2021/08/14 10:35:25;;;;;;;17.13;11.43;;;;;;;22.31;56.83;102036.75;5052387;28;20029;-59
2021/08/14 10:37:51;;;;;;;15.13;12.03;;;;;;;22.30;56.92;102035.91;5052018;28;20021;-60
2021/08/14 10:40:19;;;;;;;20.55;12.27;;;;;;;22.31;57.00;102034.94;5051430;28;20077;-59
2021/08/14 10:42:53;;;;;;;17.58;11.75;;;;;;;22.32;56.76;102035.78;5051764;28;20029;-59
2021/08/14 10:45:21;;;;;;;17.13;11.73;;;;;;;22.30;56.96;102038.56;5052031;28;20362;-59
2021/08/14 10:47:47;;;;;;;17.58;12.02;;;;;;;22.32;56.75;102033.13;5050713;28;20475;-61
2021/08/14 10:50:36;;;;;;;19.23;12.07;;;;;;;22.33;56.88;102029.50;5051846;28;20025;-60
2021/08/14 10:53:10;;;;;;;16.63;11.70;;;;;;;22.34;56.77;102029.38;5051661;28;20032;-59
2021/08/14 10:55:46;;;;;;;15.90;11.50;;;;;;;22.33;56.58;102019.72;5051281;28;20380;-59
2021/08/14 10:58:22;;;;;;;16.48;11.65;;;;;;;22.36;56.73;102023.94;5051865;28;20143;-59
2021/08/14 11:00:50;;;;;;;15.63;11.05;;;;;;;22.36;56.82;102018.63;5050765;28;20083;-61
2021/08/14 11:03:18;;;;;;;16.58;11.98;;;;;;;22.36;56.44;102022.13;5052064;28;20079;-60
2021/08/14 11:05:45;;;;;;;17.65;11.82;;;;;;;22.37;56.42;102023.81;5051289;28;20013;-59
2021/08/14 11:08:24;;;;;;;18.00;12.32;;;;;;;22.37;56.72;102023.81;5051144;28;20034;-60
2021/08/14 11:10:50;;;;;;;16.75;12.43;;;;;;;22.37;56.56;102018.50;5051369;28;20396;-59
2021/08/14 11:13:30;;;;;;;18.65;12.80;;;;;;;22.36;56.46;102015.97;5051728;28;20017;-60
2021/08/14 11:15:56;;;;;;;17.55;12.57;;;;;;;22.36;56.54;102019.47;5050752;28;20037;-59
2021/08/14 11:18:54;;;;;;;16.63;12.68;;;;;;;22.36;56.63;102022.13;5051817;28;20083;-59
2021/08/14 11:22:16;;;;;;;19.42;13.02;;;;;;;22.36;56.60;102018.63;5051931;28;20040;-59